Terminal Aerodrome Forecast
Issued by NWS Melbourne, FL

Current Version | Previous Version | Text Only | Print | Product List | Glossary On
Versions: 1 2 3 4 5 6 7 8 9 10 11 12 13 14 15 16 17
812
FTUS42 KMLB 021120
TAFVRB
TAF
KVRB 021120Z 0212/0312 16005KT P6SM FEW020 SCT250
     FM021400 14011KT P6SM SCT030 SCT250
     FM021800 12013G20KT P6SM FEW030 SCT250
     FM030200 14007KT P6SM SCT250=

USA.gov is the U.S. government's official web portal to all federal, state and local government web resources and services.